Time;durP1;ratioP1;P1;durP2;ratioP2;P2;SDS_P1;SDS_P2;PMS_P1;PMS_P2;Temp;Humidity;BMP_temperature;BMP_pressure;BME280_temperature;BME280_humidity;BME280_pressure;Samples;Min_cycle;Max_cycle;Signal;HPM_P1;HPM_P2
2022/04/11 00:00:32;;;;;;;11.75;6.47;;;;;;;-1.35;90.25;97777.38;5052296;28;20072;-64
2022/04/11 00:02:59;;;;;;;12.70;7.20;;;;;;;-1.45;89.98;97774.88;5056297;28;20041;-64
2022/04/11 00:05:26;;;;;;;10.05;5.60;;;;;;;-1.47;89.92;97778.69;5054925;28;20041;-64
2022/04/11 00:07:53;;;;;;;11.77;6.38;;;;;;;-1.45;90.79;97774.88;5068353;28;20123;-64
2022/04/11 00:10:20;;;;;;;9.85;6.15;;;;;;;-1.25;90.67;97769.22;5065203;28;20063;-64
2022/04/11 00:12:47;;;;;;;12.70;6.00;;;;;;;-1.02;90.17;97773.03;5049056;28;20040;-64
2022/04/11 00:15:13;;;;;;;8.98;6.00;;;;;;;-0.84;88.82;97770.19;5066639;28;20049;-64
2022/04/11 00:17:40;;;;;;;10.23;6.22;;;;;;;-0.81;88.34;97764.56;5045951;28;20051;-64
2022/04/11 00:20:07;;;;;;;7.43;4.88;;;;;;;-0.76;87.83;97762.22;5071145;28;20526;-64
2022/04/11 00:22:36;;;;;;;8.98;5.55;;;;;;;-0.69;87.73;97760.53;5046373;28;20045;-64
2022/04/11 00:25:04;;;;;;;10.00;5.25;;;;;;;-0.71;87.94;97759.88;5053098;28;20172;-64
2022/04/11 00:27:31;;;;;;;9.80;6.03;;;;;;;-0.74;87.65;97767.38;5045025;28;20044;-64
2022/04/11 00:29:57;;;;;;;9.88;5.70;;;;;;;-0.76;87.84;97769.34;5046762;28;20056;-65
2022/04/11 00:32:24;;;;;;;7.65;4.93;;;;;;;-0.70;87.97;97761.50;5054005;28;20048;-65
2022/04/11 00:34:50;;;;;;;10.38;5.25;;;;;;;-0.60;87.25;97753.34;5062319;28;20044;-64
2022/04/11 00:37:17;;;;;;;13.63;6.13;;;;;;;-0.71;86.93;97749.22;5063955;28;20044;-65
2022/04/11 00:39:44;;;;;;;8.23;5.60;;;;;;;-0.77;87.65;97749.06;5060363;28;20091;-64
2022/04/11 00:42:13;;;;;;;11.10;5.88;;;;;;;-0.69;88.47;97744.59;5062970;28;20392;-64
2022/04/11 00:44:40;;;;;;;9.15;5.90;;;;;;;-0.79;86.64;97744.78;5063541;28;20149;-64
2022/04/11 00:47:07;;;;;;;12.32;6.97;;;;;;;-0.89;88.94;97740.63;5046462;28;20497;-64
2022/04/11 00:49:33;;;;;;;13.98;6.15;;;;;;;-0.88;88.97;97736.97;5050419;28;20561;-64
2022/04/11 00:52:00;;;;;;;11.10;6.53;;;;;;;-0.69;88.00;97747.25;5063965;28;20525;-64
2022/04/11 00:54:29;;;;;;;10.40;6.45;;;;;;;-0.66;88.71;97733.59;5047710;28;20562;-64
2022/04/11 00:56:56;;;;;;;13.32;6.63;;;;;;;-0.67;87.29;97733.75;5045098;28;20060;-64
2022/04/11 00:59:25;;;;;;;11.38;6.03;;;;;;;-0.76;87.05;97734.78;5052131;28;20082;-64
2022/04/11 01:01:51;;;;;;;7.70;5.10;;;;;;;-0.56;87.94;97741.38;5055408;28;20033;-64
2022/04/11 01:04:26;;;;;;;8.30;4.88;;;;;;;-0.68;86.45;97737.41;5047066;28;20041;-64
2022/04/11 01:06:54;;;;;;;8.40;5.22;;;;;;;-0.57;86.34;97739.72;5066856;28;20061;-64
2022/04/11 01:09:25;;;;;;;8.45;5.18;;;;;;;-0.51;85.46;97735.53;5067996;28;20044;-64
2022/04/11 01:11:52;;;;;;;6.45;4.13;;;;;;;-0.54;86.77;97742.03;5058978;28;20050;-64
2022/04/11 01:14:20;;;;;;;6.82;4.18;;;;;;;-0.47;86.33;97749.31;5046922;28;20053;-64
2022/04/11 01:16:48;;;;;;;5.97;4.32;;;;;;;-0.43;86.27;97743.50;5050973;28;20258;-64
2022/04/11 01:19:15;;;;;;;7.55;4.60;;;;;;;-0.34;85.19;97751.44;5057272;28;20128;-64
2022/04/11 01:21:43;;;;;;;9.18;4.95;;;;;;;-0.46;85.48;97733.19;5049418;28;20117;-64
2022/04/11 01:24:10;;;;;;;9.93;5.00;;;;;;;-0.50;86.31;97739.84;5046629;28;20385;-64
2022/04/11 01:26:37;;;;;;;7.47;4.57;;;;;;;-0.47;85.85;97730.69;5039100;28;20052;-64
2022/04/11 01:29:06;;;;;;;10.65;5.25;;;;;;;-0.48;87.17;97732.53;5050585;28;21112;-64
2022/04/11 01:31:33;;;;;;;8.98;5.40;;;;;;;-0.52;86.30;97736.53;5063905;28;20523;-64
2022/04/11 01:33:59;;;;;;;10.85;5.43;;;;;;;-0.40;85.88;97729.84;5051300;28;20044;-64
2022/04/11 01:36:26;;;;;;;9.15;4.80;;;;;;;-0.31;85.00;97719.16;5061181;28;20076;-64
2022/04/11 01:38:53;;;;;;;9.40;5.55;;;;;;;-0.45;85.06;97726.88;5055418;28;20562;-64
2022/04/11 01:41:22;;;;;;;10.77;5.90;;;;;;;-0.55;86.05;97716.41;5045378;28;20726;-64
2022/04/11 01:43:49;;;;;;;8.70;5.40;;;;;;;-0.70;86.47;97716.31;5055310;28;20059;-64
2022/04/11 01:46:16;;;;;;;8.52;5.35;;;;;;;-0.86;87.21;97719.00;5048828;28;20476;-64
2022/04/11 01:48:47;;;;;;;9.07;6.10;;;;;;;-0.92;88.27;97715.22;5062293;28;20526;-64
2022/04/11 01:51:15;;;;;;;9.60;5.32;;;;;;;-0.71;87.62;97711.16;5054304;28;20127;-64
2022/04/11 01:53:41;;;;;;;8.73;5.53;;;;;;;-0.70;88.18;97711.00;5057688;28;20156;-64
2022/04/11 01:56:09;;;;;;;10.13;5.55;;;;;;;-0.58;87.66;97699.97;5059388;28;20045;-64
2022/04/11 01:58:37;;;;;;;9.80;5.32;;;;;;;-0.68;87.56;97703.69;5059043;28;20044;-64
2022/04/11 02:01:03;;;;;;;10.90;5.45;;;;;;;-0.68;87.67;97698.38;5043129;28;20041;-64
2022/04/11 02:03:33;;;;;;;12.48;5.95;;;;;;;-0.63;86.57;97700.50;5054204;28;20499;-63
2022/04/11 02:05:59;;;;;;;8.85;5.97;;;;;;;-0.63;86.83;97697.81;5043820;28;20052;-64
2022/04/11 02:08:26;;;;;;;8.02;5.15;;;;;;;-0.55;87.32;97695.13;5063866;28;20040;-64
2022/04/11 02:10:58;;;;;;;8.35;5.43;;;;;;;-0.28;87.32;97682.41;5054306;28;20507;-63
2022/04/11 02:13:26;;;;;;;8.75;5.57;;;;;;;-0.17;86.35;97680.34;5043786;28;20474;-63
2022/04/11 02:15:52;;;;;;;9.40;6.13;;;;;;;-0.12;85.41;97674.50;5047277;28;20045;-64
2022/04/11 02:18:19;;;;;;;7.50;4.97;;;;;;;-0.10;85.63;97681.31;5051034;28;20067;-64
2022/04/11 02:20:45;;;;;;;10.60;5.40;;;;;;;-0.04;85.75;97677.09;5081381;28;20492;-64
2022/04/11 02:23:13;;;;;;;9.90;5.30;;;;;;;-0.01;85.50;97674.06;5058066;28;20098;-64
2022/04/11 02:25:40;;;;;;;8.35;5.75;;;;;;;0.02;85.26;97670.22;5042036;28;20524;-64
2022/04/11 02:28:07;;;;;;;10.20;5.32;;;;;;;-0.15;84.19;97663.19;5054375;28;20047;-64
2022/04/11 02:30:34;;;;;;;7.40;5.18;;;;;;;-0.15;86.10;97663.19;5046576;28;20083;-64
2022/04/11 02:33:02;;;;;;;9.52;5.90;;;;;;;-0.29;85.72;97663.94;5060438;28;20037;-64
2022/04/11 02:35:28;;;;;;;10.00;5.70;;;;;;;-0.32;86.77;97659.81;5053392;28;20052;-64
2022/04/11 02:37:55;;;;;;;8.27;5.25;;;;;;;-0.31;86.24;97656.13;5055095;28;20057;-64
2022/04/11 02:40:22;;;;;;;7.95;5.03;;;;;;;-0.44;86.18;97651.34;5061836;28;20125;-64
2022/04/11 02:43:07;;;;;;;8.75;5.10;;;;;;;-0.20;85.76;97643.41;5046738;28;20420;-64
2022/04/11 02:45:39;;;;;;;8.73;5.50;;;;;;;-0.08;87.15;97647.31;5056068;28;20055;-64
2022/04/11 02:48:08;;;;;;;10.57;5.88;;;;;;;0.16;85.28;97639.34;5049597;28;20061;-64
2022/04/11 02:50:42;;;;;;;9.32;5.05;;;;;;;0.23;85.54;97637.63;5041489;28;20404;-64
2022/04/11 02:53:11;;;;;;;7.57;5.47;;;;;;;0.23;83.14;97634.97;5054140;28;20037;-64
2022/04/11 02:55:37;;;;;;;9.98;5.00;;;;;;;-0.12;84.97;97634.56;5042327;28;20513;-64
2022/04/11 02:58:04;;;;;;;9.18;4.97;;;;;;;-0.33;86.51;97639.50;5058072;28;20587;-64
2022/04/11 03:00:31;;;;;;;8.55;5.60;;;;;;;-0.46;87.60;97634.75;5049158;28;20037;-64
2022/04/11 03:02:58;;;;;;;9.65;6.05;;;;;;;-0.50;88.12;97633.44;5052102;28;20055;-64
2022/04/11 03:05:29;;;;;;;9.50;5.57;;;;;;;-0.57;88.34;97627.16;5047028;28;20443;-64
2022/04/11 03:07:57;;;;;;;11.30;7.15;;;;;;;-0.38;89.26;97625.88;5050615;28;20041;-64
2022/04/11 03:10:24;;;;;;;8.27;5.75;;;;;;;-0.43;88.55;97622.94;5046524;28;20049;-64
2022/04/11 03:12:54;;;;;;;8.95;6.70;;;;;;;-0.45;88.49;97619.59;5054112;28;20488;-64
2022/04/11 03:15:21;;;;;;;10.32;6.72;;;;;;;-0.34;89.87;97616.56;5049818;28;20136;-64
2022/04/11 03:17:48;;;;;;;9.48;6.28;;;;;;;-0.40;88.45;97623.41;5046188;28;20037;-64
2022/04/11 03:20:15;;;;;;;12.95;5.90;;;;;;;-0.51;88.53;97613.19;5059748;28;20504;-64
2022/04/11 03:22:43;;;;;;;12.07;6.68;;;;;;;-0.78;89.53;97617.94;5055419;28;20145;-64
2022/04/11 03:25:10;;;;;;;11.25;6.72;;;;;;;-0.73;89.13;97612.97;5066247;28;20503;-64
2022/04/11 03:27:40;;;;;;;12.93;6.53;;;;;;;-0.68;89.52;97607.09;5050902;28;20045;-63
2022/04/11 03:30:08;;;;;;;12.73;6.38;;;;;;;-0.74;89.84;97602.50;5059058;28;20428;-64
2022/04/11 03:32:37;;;;;;;11.15;6.97;;;;;;;-0.67;89.96;97608.75;5055873;28;20078;-63
2022/04/11 03:35:06;;;;;;;12.75;5.88;;;;;;;-0.73;89.38;97612.97;5054017;28;20056;-63
2022/04/11 03:37:33;;;;;;;12.35;5.47;;;;;;;-0.69;89.28;97602.78;5056766;28;20047;-63
2022/04/11 03:40:12;;;;;;;12.45;5.85;;;;;;;-0.64;89.54;97599.59;5060817;28;20072;-63
2022/04/11 03:42:40;;;;;;;13.88;7.30;;;;;;;-0.69;89.72;97605.44;5052334;28;20063;-63
2022/04/11 03:45:10;;;;;;;9.82;6.57;;;;;;;-0.75;90.79;97608.78;5057739;28;20607;-63
2022/04/11 03:47:38;;;;;;;;;;;;;;;-0.83;89.55;97612.31;5058223;28;20458;-63
2022/04/11 03:50:06;;;;;;;11.38;5.82;;;;;;;-0.96;90.18;97621.66;5055129;28;20201;-63
2022/04/11 03:52:36;;;;;;;12.32;5.93;;;;;;;-0.80;90.24;97606.66;5044974;28;20091;-63
2022/04/11 03:55:08;;;;;;;11.30;6.45;;;;;;;-0.87;nan;97611.00;5046015;28;20059;-63
2022/04/11 03:57:37;;;;;;;12.80;7.15;;;;;;;-0.99;90.74;97619.34;5052168;28;20049;-64
2022/04/11 04:00:04;;;;;;;12.23;7.13;;;;;;;-0.95;90.58;97595.94;5063423;28;20163;-63
2022/04/11 04:02:43;;;;;;;13.07;7.22;;;;;;;-1.07;90.66;97603.47;5059542;28;20051;-63
2022/04/11 04:05:13;;;;;;;11.60;6.85;;;;;;;-0.84;89.96;97600.03;5055263;28;20036;-63
2022/04/11 04:07:40;;;;;;;10.35;6.70;;;;;;;-1.15;90.69;97608.78;5062929;28;20059;-63
2022/04/11 04:10:07;;;;;;;21.35;8.57;;;;;;;-0.93;92.31;97596.56;5064551;28;20055;-63
2022/04/11 04:12:36;;;;;;;15.15;6.90;;;;;;;-0.95;90.16;97587.94;5055075;28;20697;-64
2022/04/11 04:15:11;;;;;;;11.25;6.75;;;;;;;-1.11;90.38;97584.34;5062982;28;20140;-64
2022/04/11 04:17:43;;;;;;;10.77;6.32;;;;;;;-1.18;90.35;97583.41;5060427;28;20072;-64
2022/04/11 04:20:10;;;;;;;13.43;7.53;;;;;;;-1.23;90.76;97580.41;5061778;28;20064;-63
2022/04/11 04:22:36;;;;;;;8.32;6.03;;;;;;;-1.22;90.99;97584.75;5057928;28;20050;-64
2022/04/11 04:25:05;;;;;;;9.10;6.45;;;;;;;-1.38;90.36;97581.13;5045549;28;20076;-64
2022/04/11 04:27:32;;;;;;;11.82;7.00;;;;;;;-1.48;90.84;97578.66;5049716;28;20040;-64
2022/04/11 04:29:59;;;;;;;9.93;6.28;;;;;;;-1.48;90.65;97583.13;5063833;28;20049;-63
2022/04/11 04:32:26;;;;;;;10.45;6.57;;;;;;;-1.49;91.29;97589.44;5059118;28;20041;-64
2022/04/11 04:34:53;;;;;;;11.15;6.53;;;;;;;-1.56;90.87;97586.63;5062244;28;20235;-64
2022/04/11 04:37:20;;;;;;;10.55;6.90;;;;;;;-1.60;91.86;97593.28;5043501;28;20044;-64
2022/04/11 04:39:49;;;;;;;11.00;6.35;;;;;;;-1.78;91.62;97599.59;5055754;28;20579;-64
2022/04/11 04:42:22;;;;;;;9.63;6.93;;;;;;;-1.66;91.59;97593.97;5057727;28;20051;-64
2022/04/11 04:44:53;;;;;;;14.82;7.28;;;;;;;-1.68;91.34;97598.59;5058374;28;20431;-64
2022/04/11 04:47:20;;;;;;;12.65;7.60;;;;;;;-1.44;93.29;97601.22;5059752;28;20048;-64
2022/04/11 04:49:48;;;;;;;13.60;7.53;;;;;;;-1.58;90.71;97605.38;5053398;28;20122;-64
2022/04/11 04:52:17;;;;;;;10.13;7.22;;;;;;;-1.78;90.13;97599.59;5056652;28;20275;-64
2022/04/11 04:54:56;;;;;;;12.18;7.28;;;;;;;-1.89;91.02;97603.44;5049332;28;20053;-64
2022/04/11 04:57:22;;;;;;;12.63;7.53;;;;;;;-1.90;91.60;97600.94;5051929;28;20573;-63
2022/04/11 04:59:49;;;;;;;12.00;7.45;;;;;;;-2.01;91.41;97591.50;5056023;28;20129;-63
2022/04/11 05:02:22;;;;;;;13.43;7.88;;;;;;;-2.11;91.87;97584.53;5054842;28;20090;-63
2022/04/11 05:04:50;;;;;;;12.55;6.68;;;;;;;-2.04;91.99;97581.19;5066088;28;20419;-63
2022/04/11 05:07:17;;;;;;;11.65;6.85;;;;;;;-1.77;92.13;97587.16;5062688;28;20298;-63
2022/04/11 05:09:44;;;;;;;11.30;7.10;;;;;;;-1.54;92.04;97589.13;5055340;28;20079;-63
2022/04/11 05:12:10;;;;;;;14.77;7.88;;;;;;;-1.42;89.69;97586.94;5063468;28;20068;-63
2022/04/11 05:14:38;;;;;;;10.80;6.82;;;;;;;-1.76;89.51;97584.34;5078897;28;20040;-63
2022/04/11 05:17:10;;;;;;;11.70;7.45;;;;;;;-1.74;91.12;97585.00;5067702;28;20064;-64
2022/04/11 05:19:37;;;;;;;11.95;6.90;;;;;;;-1.35;90.94;97585.25;5072254;28;20046;-64
2022/04/11 05:22:06;;;;;;;11.18;7.05;;;;;;;-1.28;89.34;97588.91;5044850;28;20417;-64
2022/04/11 05:24:33;;;;;;;11.13;6.57;;;;;;;-1.28;89.76;97588.91;5060577;28;20237;-64
2022/04/11 05:27:00;;;;;;;11.25;6.85;;;;;;;-1.59;89.27;97582.50;5049178;28;20082;-64
2022/04/11 05:29:26;;;;;;;9.98;7.22;;;;;;;-1.68;90.07;97583.50;5059713;28;20036;-64
2022/04/11 05:31:53;;;;;;;16.65;9.05;;;;;;;-1.54;89.62;97584.66;5050459;28;20068;-64
2022/04/11 05:34:20;;;;;;;13.32;7.43;;;;;;;-1.63;90.09;97582.97;5048796;28;20048;-64
2022/04/11 05:36:46;;;;;;;12.15;7.97;;;;;;;-1.59;90.31;97579.00;5058844;28;20048;-64
2022/04/11 05:39:14;;;;;;;14.35;7.80;;;;;;;-1.40;90.83;97579.63;5056122;28;20048;-64
2022/04/11 05:41:41;;;;;;;15.13;7.40;;;;;;;-1.37;90.07;97584.63;5051345;28;20589;-64
2022/04/11 05:44:08;;;;;;;14.00;8.23;;;;;;;-1.21;89.96;97581.06;5063962;28;20584;-64
2022/04/11 05:46:40;;;;;;;12.55;7.60;;;;;;;-1.14;89.06;97583.88;5056447;28;20041;-64
2022/04/11 05:49:20;;;;;;;11.77;7.68;;;;;;;-1.07;88.60;97576.88;5047803;28;20055;-64
2022/04/11 05:51:47;;;;;;;13.10;8.23;;;;;;;-1.08;89.52;97575.19;5051988;28;20040;-64
2022/04/11 05:54:14;;;;;;;13.48;7.60;;;;;;;-1.01;89.74;97572.69;5051142;28;20047;-64
2022/04/11 05:56:41;;;;;;;14.70;9.10;;;;;;;-0.88;89.21;97577.47;5056360;28;20419;-64
2022/04/11 05:59:11;;;;;;;12.13;7.60;;;;;;;-0.76;88.79;97581.38;5054597;28;20483;-64
2022/04/11 06:01:40;;;;;;;16.17;9.52;;;;;;;-0.56;89.47;97584.44;5056787;28;20079;-64
2022/04/11 06:04:09;;;;;;;12.77;8.57;;;;;;;-0.57;88.06;97579.28;5058502;28;20506;-64
2022/04/11 06:06:36;;;;;;;15.13;8.70;;;;;;;-0.49;87.78;97581.06;5051090;28;20048;-64
2022/04/11 06:09:04;;;;;;;15.25;8.27;;;;;;;-0.33;89.15;97575.63;5060510;28;20519;-64
2022/04/11 06:11:32;;;;;;;15.50;8.65;;;;;;;0.03;87.81;97579.53;5055471;28;20064;-64
2022/04/11 06:13:59;;;;;;;12.20;8.00;;;;;;;0.14;86.04;97580.94;5070045;28;20055;-64
2022/04/11 06:16:25;;;;;;;15.02;8.13;;;;;;;0.12;86.19;97575.78;5046146;28;20040;-64
2022/04/11 06:18:52;;;;;;;11.93;7.50;;;;;;;0.14;86.84;97577.47;5072195;28;20043;-64
2022/04/11 06:21:19;;;;;;;11.40;8.35;;;;;;;0.25;87.12;97574.34;5047729;28;20228;-64
2022/04/11 06:23:46;;;;;;;14.05;7.75;;;;;;;0.38;87.48;97571.06;5044806;28;20094;-64
2022/04/11 06:26:13;;;;;;;15.55;8.60;;;;;;;0.56;86.12;97569.91;5058193;28;20045;-64
2022/04/11 06:28:43;;;;;;;16.05;7.95;;;;;;;0.70;85.77;97570.94;5048114;28;20072;-64
2022/04/11 06:31:11;;;;;;;14.45;7.50;;;;;;;0.93;85.20;97576.16;5045721;28;20090;-64
2022/04/11 06:33:40;;;;;;;12.45;7.95;;;;;;;1.04;85.32;97569.53;5047123;28;20143;-64
2022/04/11 06:36:07;;;;;;;11.00;7.93;;;;;;;1.23;84.86;97572.63;5047030;28;20470;-64
2022/04/11 06:38:33;;;;;;;13.23;7.57;;;;;;;1.38;84.55;97576.09;5033718;28;20307;-65
2022/04/11 06:41:02;;;;;;;12.85;7.45;;;;;;;1.52;83.53;97570.91;5052976;28;20060;-64
2022/04/11 06:43:29;;;;;;;12.02;7.22;;;;;;;1.85;82.29;97570.41;5058206;28;20037;-64
2022/04/11 06:46:01;;;;;;;16.17;9.73;;;;;;;2.39;79.44;97567.38;5052462;28;20940;-60
2022/04/11 06:48:31;;;;;;;11.35;6.47;;;;;;;2.69;77.80;97570.66;5057204;28;20140;-60
2022/04/11 06:50:58;;;;;;;8.63;5.07;;;;;;;2.99;75.32;97566.91;5036044;28;20512;-60
2022/04/11 06:53:24;;;;;;;10.50;5.85;;;;;;;3.17;74.63;97563.69;5055504;28;20367;-61
2022/04/11 06:55:51;;;;;;;10.45;5.65;;;;;;;3.52;73.76;97557.44;5061300;28;20039;-62
2022/04/11 06:58:24;;;;;;;13.40;5.70;;;;;;;3.72;71.62;97557.47;5059324;28;20045;-60
2022/04/11 07:00:51;;;;;;;10.07;5.28;;;;;;;3.86;71.22;97558.31;5066514;28;20040;-60
2022/04/11 07:03:17;;;;;;;8.73;5.15;;;;;;;3.94;70.63;97569.88;5060632;28;20563;-60
2022/04/11 07:05:44;;;;;;;6.32;4.25;;;;;;;4.00;70.07;97572.56;5052487;28;20394;-61
2022/04/11 07:08:10;;;;;;;8.38;5.13;;;;;;;4.01;69.25;97562.66;5066260;28;20458;-60
2022/04/11 07:10:40;;;;;;;9.15;4.85;;;;;;;4.09;70.80;97567.81;5046668;28;20379;-60
2022/04/11 07:13:07;;;;;;;8.18;4.93;;;;;;;4.27;71.44;97571.75;5041433;28;20052;-61
2022/04/11 07:15:34;;;;;;;9.48;5.40;;;;;;;4.44;69.61;97561.44;5062346;28;20435;-62
2022/04/11 07:18:01;;;;;;;7.10;4.90;;;;;;;4.51;68.55;97564.09;5056929;28;20055;-60
2022/04/11 07:20:27;;;;;;;8.90;4.00;;;;;;;4.71;68.08;97557.91;5057805;28;20111;-61
2022/04/11 07:22:54;;;;;;;10.55;5.15;;;;;;;5.09;66.85;97557.19;5050221;28;20059;-59
2022/04/11 07:25:23;;;;;;;8.07;4.68;;;;;;;5.25;65.38;97555.88;5056300;28;20045;-60
2022/04/11 07:27:50;;;;;;;7.20;3.78;;;;;;;5.39;65.49;97559.34;5045161;28;20041;-59
2022/04/11 07:30:17;;;;;;;8.90;4.07;;;;;;;5.56;63.39;97559.66;5048264;28;20110;-64
2022/04/11 07:32:43;;;;;;;7.30;4.15;;;;;;;5.45;62.48;97560.31;5057359;28;20421;-64
2022/04/11 07:35:10;;;;;;;13.98;5.50;;;;;;;5.43;63.49;97563.25;5055434;28;20768;-64
2022/04/11 07:37:36;;;;;;;7.18;3.88;;;;;;;5.47;64.02;97567.16;5054772;28;20044;-65
2022/04/11 07:40:04;;;;;;;7.60;3.95;;;;;;;5.55;63.37;97568.75;5053212;28;20036;-66
2022/04/11 07:42:30;;;;;;;13.73;4.82;;;;;;;5.69;63.46;97564.13;5060420;28;20044;-66
2022/04/11 07:44:57;;;;;;;7.78;3.80;;;;;;;5.77;62.64;97564.91;5058894;28;20447;-65
2022/04/11 07:47:23;;;;;;;8.00;4.05;;;;;;;5.87;60.85;97567.97;5066890;28;20500;-65
2022/04/11 07:49:50;;;;;;;7.50;3.70;;;;;;;5.90;59.66;97580.13;5063184;28;20063;-64
2022/04/11 07:52:17;;;;;;;5.80;3.50;;;;;;;6.02;58.58;97570.34;5054290;28;20094;-65
2022/04/11 07:54:43;;;;;;;6.88;3.85;;;;;;;6.11;58.56;97569.06;5073874;28;20595;-65
2022/04/11 07:57:10;;;;;;;5.95;3.40;;;;;;;6.22;58.71;97572.06;5055095;28;20048;-66
2022/04/11 07:59:36;;;;;;;6.32;3.42;;;;;;;6.27;57.96;97571.44;5064379;28;20047;-66
2022/04/11 08:02:03;;;;;;;6.40;3.13;;;;;;;6.32;58.02;97576.97;5059834;28;20077;-66
2022/04/11 08:04:30;;;;;;;7.97;4.40;;;;;;;6.47;62.72;97573.94;5061449;28;20095;-65
2022/04/11 08:06:56;;;;;;;8.90;3.65;;;;;;;6.52;59.16;97578.69;5053896;28;20052;-65
2022/04/11 08:09:23;;;;;;;6.07;3.20;;;;;;;6.60;57.00;97581.09;5046617;28;20407;-65
2022/04/11 08:11:49;;;;;;;5.78;3.38;;;;;;;6.68;56.75;97578.13;5040745;28;20052;-65
2022/04/11 08:14:16;;;;;;;7.60;4.30;;;;;;;6.76;57.79;97575.13;5052074;28;20450;-65
2022/04/11 08:16:43;;;;;;;8.98;3.63;;;;;;;6.88;57.04;97567.16;5049502;28;20044;-67
2022/04/11 08:19:10;;;;;;;5.28;2.92;;;;;;;7.05;54.42;97566.56;5050124;28;20396;-65
2022/04/11 08:21:37;;;;;;;7.95;2.97;;;;;;;7.05;53.46;97569.25;5064508;28;20427;-64
2022/04/11 08:24:04;;;;;;;9.70;4.60;;;;;;;7.18;58.22;97567.47;5058609;28;20049;-66
2022/04/11 08:26:31;;;;;;;8.77;3.38;;;;;;;7.26;56.03;97561.78;5066137;28;20044;-65
2022/04/11 08:28:58;;;;;;;5.25;2.88;;;;;;;7.29;52.14;97562.13;5071986;28;20591;-65
2022/04/11 08:31:24;;;;;;;5.40;2.97;;;;;;;7.34;53.31;97564.13;5064269;28;20246;-65
2022/04/11 08:33:51;;;;;;;7.40;2.83;;;;;;;7.44;51.98;97565.50;5053813;28;20041;-64
2022/04/11 08:36:19;;;;;;;6.70;2.60;;;;;;;7.51;51.00;97555.41;5051949;28;20467;-65
2022/04/11 08:38:46;;;;;;;6.43;2.65;;;;;;;7.52;50.08;97560.59;5068992;28;20047;-65
2022/04/11 08:41:17;;;;;;;5.53;2.55;;;;;;;7.65;50.46;97559.59;5076497;28;20044;-65
2022/04/11 08:43:44;;;;;;;4.82;2.60;;;;;;;7.80;50.96;97561.06;5057964;28;20542;-64
2022/04/11 08:46:15;;;;;;;4.97;2.10;;;;;;;7.86;49.71;97559.31;5040049;28;20049;-65
2022/04/11 08:48:43;;;;;;;4.53;2.53;;;;;;;7.98;49.97;97548.56;5057116;28;20516;-65
2022/04/11 08:51:11;;;;;;;4.20;2.28;;;;;;;8.05;50.37;97554.69;5056526;28;20040;-65
2022/04/11 08:53:38;;;;;;;3.95;2.05;;;;;;;8.09;49.12;97550.47;5060872;28;20047;-65
2022/04/11 08:56:04;;;;;;;6.18;2.50;;;;;;;8.10;48.59;97549.41;5046017;28;20044;-64
2022/04/11 08:58:31;;;;;;;5.25;2.08;;;;;;;8.17;47.70;97541.22;5045305;28;20048;-64
2022/04/11 09:00:57;;;;;;;4.55;2.15;;;;;;;8.23;48.87;97537.59;5046699;28;20037;-66
2022/04/11 09:03:24;;;;;;;6.43;2.50;;;;;;;8.45;48.38;97543.22;5050293;28;20443;-65
2022/04/11 09:06:08;;;;;;;4.93;2.30;;;;;;;8.41;45.60;97542.06;5045469;28;20037;-66
2022/04/11 09:08:55;;;;;;;5.95;2.17;;;;;;;8.49;46.51;97542.78;5066895;28;20403;-65
2022/04/11 09:11:31;;;;;;;5.22;2.05;;;;;;;8.58;47.10;97533.28;5044226;28;20044;-65
2022/04/11 09:14:02;;;;;;;3.90;1.85;;;;;;;8.66;45.91;97534.84;5044741;28;20048;-65
2022/04/11 09:16:48;;;;;;;4.88;2.10;;;;;;;8.79;46.58;97540.00;5053930;28;20055;-64
2022/04/11 09:19:23;;;;;;;5.55;2.17;;;;;;;8.94;45.73;97527.88;5046039;28;20431;-64
2022/04/11 09:22:10;;;;;;;4.75;2.00;;;;;;;8.98;45.56;97524.47;5052545;28;20563;-64
2022/04/11 09:24:37;;;;;;;3.97;1.70;;;;;;;9.14;44.51;97532.06;5051419;28;20128;-63
2022/04/11 09:27:04;;;;;;;4.28;2.15;;;;;;;9.29;46.15;97526.97;5058407;28;20097;-65
2022/04/11 09:29:35;;;;;;;2.95;1.95;;;;;;;9.39;46.20;97529.03;5051856;28;20041;-64
2022/04/11 09:32:03;;;;;;;5.05;2.00;;;;;;;9.42;45.11;97528.56;5058744;28;20051;-64
2022/04/11 09:34:30;;;;;;;3.08;1.60;;;;;;;9.51;43.42;97515.47;5062036;28;20083;-64
2022/04/11 09:37:00;;;;;;;2.95;1.75;;;;;;;9.67;42.80;97507.66;5054710;28;20050;-64
2022/04/11 09:39:33;;;;;;;3.40;1.83;;;;;;;9.55;42.26;97519.34;5052283;28;20045;-64
2022/04/11 09:42:04;;;;;;;3.63;1.80;;;;;;;9.61;43.14;97515.69;5050801;28;20041;-64
2022/04/11 09:44:32;;;;;;;4.57;2.03;;;;;;;9.69;41.50;97505.56;5042533;28;20396;-64
2022/04/11 09:47:01;;;;;;;6.10;2.00;;;;;;;9.81;42.94;97505.47;5054260;28;20040;-64
2022/04/11 09:49:28;;;;;;;3.65;2.15;;;;;;;9.92;42.65;97509.19;5061927;28;20040;-63
2022/04/11 09:52:07;;;;;;;3.75;2.10;;;;;;;9.95;41.86;97506.00;5051636;28;20091;-64
2022/04/11 09:54:38;;;;;;;3.20;1.85;;;;;;;10.04;42.94;97499.13;5056250;28;20083;-64
2022/04/11 09:57:05;;;;;;;4.43;1.92;;;;;;;10.14;43.33;97499.25;5043596;28;20045;-65
2022/04/11 09:59:34;;;;;;;3.42;1.70;;;;;;;10.25;39.74;97507.56;5051690;28;20086;-64
2022/04/11 10:02:17;;;;;;;3.20;1.42;;;;;;;10.16;37.48;97493.63;5055822;28;20131;-65
2022/04/11 10:04:47;;;;;;;3.38;1.33;;;;;;;10.30;36.26;97496.81;5049837;28;20045;-64
2022/04/11 10:07:14;;;;;;;2.97;1.50;;;;;;;10.44;36.38;97482.94;5058288;28;20052;-64
2022/04/11 10:09:41;;;;;;;4.95;1.80;;;;;;;10.62;37.42;97490.78;5059227;28;20086;-64
2022/04/11 10:12:09;;;;;;;4.35;1.88;;;;;;;10.74;37.60;97484.47;5057437;28;20056;-64
2022/04/11 10:14:36;;;;;;;5.13;1.70;;;;;;;10.86;37.82;97481.63;5057647;28;20044;-64
2022/04/11 10:17:04;;;;;;;3.20;1.70;;;;;;;10.77;38.88;97487.47;5058321;28;20055;-64
2022/04/11 10:19:33;;;;;;;3.63;1.40;;;;;;;10.92;35.91;97483.34;5063742;28;20534;-65
2022/04/11 10:22:06;;;;;;;5.07;1.45;;;;;;;11.03;35.69;97487.00;5048974;28;20148;-66
2022/04/11 10:24:33;;;;;;;7.43;2.00;;;;;;;11.21;36.68;97475.03;5060013;28;20048;-66
2022/04/11 10:27:25;;;;;;;3.97;1.55;;;;;;;11.03;35.22;97471.56;5058507;28;20041;-66
2022/04/11 10:29:54;;;;;;;4.53;1.85;;;;;;;11.08;37.61;97472.69;5062481;28;20082;-66
2022/04/11 10:32:22;;;;;;;3.63;1.83;;;;;;;11.25;37.14;97469.91;5052920;28;20049;-65
2022/04/11 10:35:01;;;;;;;3.63;1.48;;;;;;;11.24;36.81;97471.00;5058133;28;20545;-66
2022/04/11 10:38:04;;;;;;;3.60;1.75;;;;;;;11.21;34.61;97450.63;5057524;28;20094;-66
2022/04/11 10:40:30;;;;;;;4.15;1.60;;;;;;;11.43;37.43;97457.91;5051518;28;20443;-66
2022/04/11 10:43:00;;;;;;;7.38;2.20;;;;;;;11.27;36.68;97455.03;5057202;28;20072;-67
2022/04/11 10:45:36;;;;;;;4.55;2.13;;;;;;;11.42;38.31;97453.53;5043717;28;20068;-66
2022/04/11 10:48:04;;;;;;;5.20;1.75;;;;;;;11.50;36.37;97444.94;5058406;28;20049;-65
2022/04/11 10:50:41;;;;;;;3.72;1.67;;;;;;;11.83;36.83;97450.41;5039728;28;20048;-66
2022/04/11 10:53:15;;;;;;;3.75;2.17;;;;;;;11.81;37.94;97444.44;5066879;28;20330;-66
2022/04/11 10:55:58;;;;;;;4.25;2.03;;;;;;;11.67;35.87;97441.31;5061042;28;20041;-65
2022/04/11 10:58:40;;;;;;;4.35;1.75;;;;;;;11.70;35.94;97433.50;5054726;28;20067;-64
2022/04/11 11:01:08;;;;;;;3.97;1.73;;;;;;;11.83;36.63;97432.25;5059420;28;20033;-64
2022/04/11 11:03:35;;;;;;;4.13;2.22;;;;;;;11.79;37.19;97428.41;5063760;28;20047;-64
2022/04/11 11:06:22;;;;;;;4.68;2.00;;;;;;;11.94;39.02;97427.72;5062987;28;20166;-64
2022/04/11 11:08:49;;;;;;;4.53;1.80;;;;;;;12.01;39.12;97419.34;5060973;28;20048;-65
2022/04/11 11:11:27;;;;;;;4.70;1.98;;;;;;;12.19;36.08;97418.16;5054234;28;20044;-65
2022/04/11 11:13:56;;;;;;;3.03;1.70;;;;;;;12.02;35.33;97412.84;5055042;28;20044;-65
2022/04/11 11:16:22;;;;;;;5.22;1.70;;;;;;;12.03;36.25;97409.06;5059873;28;20141;-64
2022/04/11 11:19:10;;;;;;;3.75;2.13;;;;;;;12.43;36.34;97400.66;5052433;28;20048;-64
2022/04/11 11:21:37;;;;;;;4.15;2.00;;;;;;;12.39;35.63;97394.94;5061205;28;20039;-64
2022/04/11 11:24:04;;;;;;;4.35;2.03;;;;;;;12.51;38.37;97389.28;5058600;28;20611;-66
2022/04/11 11:26:49;;;;;;;4.88;2.53;;;;;;;12.72;37.25;97394.81;5050740;28;20037;-65
2022/04/11 11:29:21;;;;;;;4.28;2.20;;;;;;;12.90;35.51;97398.13;5055043;28;20053;-65
2022/04/11 11:31:49;;;;;;;;;;;;;;;12.88;33.86;97387.53;5051438;28;20097;-65
2022/04/11 11:34:18;;;;;;;6.00;1.85;;;;;;;12.99;36.03;97396.53;5070535;28;19923;-64
2022/04/11 11:36:44;;;;;;;4.80;2.00;;;;;;;13.03;36.43;97385.94;5047492;28;20508;-64
2022/04/11 11:39:18;;;;;;;3.88;1.80;;;;;;;13.22;35.48;97378.09;5055870;28;20053;-65
2022/04/11 11:41:53;;;;;;;4.25;1.88;;;;;;;12.98;34.93;97375.88;5062429;28;20090;-65